Wallkill, New York
Current Conditions -  °F | °C
As of 4:45 AM on Sunday 26 Oct 2014 (Local Time) from KSWF Reporting Station
Scattered Clouds Scattered Clouds  
Wind Chill: 41°   Ceiling: Unl
Heat Index: 45°   Visibility: 10mi
Dew Point: 41°   Wind: 6mph
Humidity: 87%   Direction: 260°W
Pressure: 29.59"   Gusts: NA
Location:  41.61°N, 74.16°W
Report Text: KSWF 260845Z 26005KT 10SM SCT080 07/05 A2959
Loading
Personal Weather Stations






























Interactive Weather Map
Tropical Storm Tracking
New forecast layout! Learn more

10-Day Weather Forecast

Advertisements
Track Severe Weather on mobile